createdAt,value
2022-08-27T00:00:54.872Z,20
2022-08-27T00:01:54.878Z,20
2022-08-27T00:02:54.850Z,20
2022-08-27T00:03:54.843Z,20
2022-08-27T00:04:54.837Z,20
2022-08-27T00:05:54.834Z,20
2022-08-27T00:06:54.812Z,20
2022-08-27T00:07:54.803Z,20
2022-08-27T00:08:54.795Z,20
2022-08-27T00:09:54.781Z,20
2022-08-27T00:10:54.765Z,20
2022-08-27T00:11:54.766Z,20
2022-08-27T00:12:54.749Z,20
2022-08-27T00:13:54.735Z,20
2022-08-27T00:14:54.727Z,20
2022-08-27T00:15:54.727Z,20
2022-08-27T00:16:54.726Z,20
2022-08-27T00:17:54.721Z,20
2022-08-27T00:18:54.691Z,20
2022-08-27T00:19:54.672Z,20
2022-08-27T00:20:54.668Z,20
2022-08-27T00:21:54.668Z,20
2022-08-27T00:22:54.642Z,20
2022-08-27T00:23:54.649Z,20
2022-08-27T00:24:54.633Z,20
2022-08-27T00:25:54.611Z,20
2022-08-27T00:26:54.602Z,20
2022-08-27T00:27:54.608Z,20
2022-08-27T00:28:54.580Z,20
2022-08-27T00:29:54.576Z,20
2022-08-27T00:30:54.564Z,20
2022-08-27T00:31:54.545Z,20
2022-08-27T00:32:54.537Z,20
2022-08-27T00:33:54.528Z,20
2022-08-27T00:34:54.518Z,20
2022-08-27T00:35:54.502Z,20
2022-08-27T00:36:54.501Z,20
2022-08-27T00:37:54.489Z,20
2022-08-27T00:38:54.472Z,20
2022-08-27T00:39:54.464Z,20
2022-08-27T00:40:54.458Z,20
2022-08-27T00:41:54.460Z,20
2022-08-27T00:42:54.437Z,20
2022-08-27T00:43:54.426Z,20
2022-08-27T00:44:54.415Z,20
2022-08-27T00:45:54.408Z,20
2022-08-27T00:46:54.394Z,20
2022-08-27T00:47:54.397Z,20
2022-08-27T00:48:54.376Z,20
2022-08-27T00:49:54.358Z,20
2022-08-27T00:50:54.350Z,20
2022-08-27T00:51:54.339Z,20
2022-08-27T00:52:54.327Z,20
2022-08-27T00:53:54.333Z,20
2022-08-27T00:54:54.306Z,20
2022-08-27T00:55:54.302Z,20
2022-08-27T00:56:54.284Z,20
2022-08-27T00:57:54.278Z,20
2022-08-27T00:58:54.264Z,20
2022-08-27T00:59:54.251Z,20
2022-08-27T01:00:54.255Z,20
2022-08-27T01:01:54.235Z,20
2022-08-27T01:02:54.227Z,20
2022-08-27T01:03:54.219Z,20
2022-08-27T01:04:54.212Z,20
2022-08-27T01:05:54.190Z,20
2022-08-27T01:06:54.188Z,20
2022-08-27T01:07:54.172Z,20
2022-08-27T01:08:54.163Z,20
2022-08-27T01:09:54.160Z,20
2022-08-27T01:10:54.150Z,20
2022-08-27T01:11:54.141Z,20
2022-08-27T01:12:54.134Z,20
2022-08-27T01:13:54.107Z,20
2022-08-27T01:14:54.100Z,20
2022-08-27T01:15:54.115Z,20
2022-08-27T01:16:54.084Z,20
2022-08-27T01:17:54.077Z,20
2022-08-27T01:18:54.058Z,20
2022-08-27T01:19:54.051Z,20
2022-08-27T01:20:54.039Z,20
2022-08-27T01:21:54.042Z,20
2022-08-27T01:22:54.021Z,20
2022-08-27T01:23:54.014Z,20
2022-08-27T01:24:53.996Z,20
2022-08-27T01:25:54.005Z,20
2022-08-27T01:26:53.972Z,20
2022-08-27T01:27:53.974Z,20
2022-08-27T01:28:53.965Z,20
2022-08-27T01:29:53.939Z,20
2022-08-27T01:30:53.935Z,20
2022-08-27T01:31:53.929Z,20
2022-08-27T01:32:53.906Z,20
2022-08-27T01:33:53.951Z,20
2022-08-27T01:34:53.888Z,20
2022-08-27T01:35:53.873Z,20
2022-08-27T01:36:53.869Z,20
2022-08-27T01:37:53.856Z,20
2022-08-27T01:38:53.855Z,20
2022-08-27T01:39:53.834Z,20
2022-08-27T01:40:53.817Z,20
2022-08-27T01:41:53.809Z,20
2022-08-27T01:42:53.809Z,20
2022-08-27T01:43:53.788Z,20
2022-08-27T01:44:53.784Z,20
2022-08-27T01:45:53.774Z,20
2022-08-27T01:46:53.761Z,20
2022-08-27T01:47:54.730Z,20
2022-08-27T01:48:53.736Z,20
2022-08-27T01:49:53.725Z,20
2022-08-27T01:50:53.733Z,20
2022-08-27T01:51:53.707Z,20
2022-08-27T01:52:53.689Z,20
2022-08-27T01:53:53.690Z,20
2022-08-27T01:54:53.675Z,20
2022-08-27T01:55:53.661Z,24
2022-08-27T01:56:53.657Z,20
2022-08-27T01:57:53.681Z,20
2022-08-27T01:58:53.665Z,20
2022-08-27T01:59:53.649Z,20
2022-08-27T02:00:53.605Z,20
2022-08-27T02:01:53.687Z,20
2022-08-27T02:02:53.590Z,20
2022-08-27T02:03:53.581Z,20
2022-08-27T02:04:53.572Z,20
2022-08-27T02:05:53.642Z,20
2022-08-27T02:06:53.546Z,20
2022-08-27T02:07:53.536Z,20
2022-08-27T02:08:53.536Z,20
2022-08-27T02:09:53.519Z,20
2022-08-27T02:10:53.501Z,24
2022-08-27T02:11:53.494Z,20
2022-08-27T02:12:53.502Z,20
2022-08-27T02:13:53.479Z,20
2022-08-27T02:14:53.464Z,20
2022-08-27T02:15:53.446Z,20
2022-08-27T02:16:53.455Z,20
2022-08-27T02:17:53.423Z,20
2022-08-27T02:18:53.423Z,20
2022-08-27T02:19:53.408Z,20
2022-08-27T02:20:53.400Z,20
2022-08-27T02:21:53.394Z,20
2022-08-27T02:22:53.381Z,20
2022-08-27T02:23:53.383Z,20
2022-08-27T02:24:53.377Z,20
2022-08-27T02:25:53.363Z,20
2022-08-27T02:26:53.339Z,20
2022-08-27T02:27:53.331Z,20
2022-08-27T02:28:53.318Z,20
2022-08-27T02:29:53.308Z,20
2022-08-27T02:30:53.294Z,20
2022-08-27T02:31:53.296Z,20
2022-08-27T02:32:53.265Z,20
2022-08-27T02:33:53.262Z,20
2022-08-27T02:34:53.273Z,20
2022-08-27T02:35:53.252Z,20
2022-08-27T02:36:53.236Z,20
2022-08-27T02:37:53.226Z,20
2022-08-27T02:38:53.205Z,20
2022-08-27T02:39:53.210Z,20
2022-08-27T02:40:53.180Z,20
2022-08-27T02:41:53.189Z,20
2022-08-27T02:42:53.172Z,20
2022-08-27T02:43:53.176Z,20
2022-08-27T02:44:53.140Z,20
2022-08-27T02:45:53.124Z,20
2022-08-27T02:46:53.112Z,20
2022-08-27T02:47:53.114Z,20
2022-08-27T02:48:53.095Z,20
2022-08-27T02:49:53.088Z,20
2022-08-27T02:50:53.097Z,20
2022-08-27T02:51:53.082Z,20
2022-08-27T02:52:53.061Z,20
2022-08-27T02:53:53.057Z,20
2022-08-27T02:54:53.043Z,20
2022-08-27T02:55:53.023Z,20
2022-08-27T02:56:53.014Z,20
2022-08-27T02:57:53.016Z,20
2022-08-27T02:58:53.010Z,20
2022-08-27T02:59:53.005Z,20
2022-08-27T03:00:52.981Z,24
2022-08-27T03:01:52.957Z,24
2022-08-27T03:02:52.948Z,24
2022-08-27T03:03:52.930Z,24
2022-08-27T03:04:52.933Z,24
2022-08-27T03:05:52.923Z,24
2022-08-27T03:06:52.901Z,28
2022-08-27T03:07:52.893Z,24
2022-08-27T03:08:52.890Z,28
2022-08-27T03:09:52.866Z,28
2022-08-27T03:10:52.859Z,24
2022-08-27T03:11:52.869Z,28
2022-08-27T03:12:52.835Z,24
2022-08-27T03:13:52.831Z,24
2022-08-27T03:14:52.821Z,24
2022-08-27T03:15:52.802Z,28
2022-08-27T03:16:52.792Z,28
2022-08-27T03:17:52.786Z,28
2022-08-27T03:18:52.772Z,28
2022-08-27T03:19:52.767Z,28
2022-08-27T03:20:52.780Z,28
2022-08-27T03:21:52.744Z,28
2022-08-27T03:22:52.738Z,28
2022-08-27T03:23:52.722Z,28
2022-08-27T03:24:52.713Z,28
2022-08-27T03:25:52.705Z,28
2022-08-27T03:26:52.698Z,28
2022-08-27T03:27:52.674Z,24
2022-08-27T03:28:52.669Z,24
2022-08-27T03:29:52.673Z,28
2022-08-27T03:30:52.644Z,28
2022-08-27T03:31:52.633Z,24
2022-08-27T03:32:52.621Z,28
2022-08-27T03:33:52.607Z,28
2022-08-27T03:34:52.607Z,28
2022-08-27T03:35:52.595Z,28
2022-08-27T03:36:52.577Z,28
2022-08-27T03:37:52.565Z,24
2022-08-27T03:38:52.558Z,28
2022-08-27T03:39:52.563Z,28
2022-08-27T03:40:52.540Z,28
2022-08-27T03:41:52.529Z,28
2022-08-27T03:42:52.511Z,28
2022-08-27T03:43:52.509Z,28
2022-08-27T03:44:52.489Z,28
2022-08-27T03:45:52.491Z,28
2022-08-27T03:46:52.474Z,28
2022-08-27T03:47:52.468Z,28
2022-08-27T03:48:52.451Z,28
2022-08-27T03:49:52.459Z,28
2022-08-27T03:50:52.431Z,28
2022-08-27T03:51:52.415Z,28
2022-08-27T03:52:52.404Z,28
2022-08-27T03:53:52.399Z,28
2022-08-27T03:54:52.386Z,24
2022-08-27T03:55:52.373Z,24
2022-08-27T03:56:52.362Z,24
2022-08-27T03:57:52.355Z,24
2022-08-27T03:58:52.346Z,24
2022-08-27T03:59:52.344Z,24
2022-08-27T04:00:52.327Z,24
2022-08-27T04:01:52.328Z,24
2022-08-27T04:02:52.306Z,24
2022-08-27T04:03:52.294Z,24
2022-08-27T04:04:52.284Z,24
2022-08-27T04:05:52.273Z,24
2022-08-27T04:06:52.266Z,28
2022-08-27T04:07:52.264Z,28
2022-08-27T04:08:52.257Z,28
2022-08-27T04:09:52.235Z,28
2022-08-27T04:10:52.220Z,28
2022-08-27T04:11:52.210Z,24
2022-08-27T04:12:52.204Z,28
2022-08-27T04:13:52.178Z,28
2022-08-27T04:14:52.178Z,28
2022-08-27T04:15:52.166Z,28
2022-08-27T04:16:52.151Z,32
2022-08-27T04:17:52.139Z,28
2022-08-27T04:18:52.139Z,32
2022-08-27T04:19:59.700Z,32
2022-08-27T04:20:59.726Z,32
2022-08-27T04:21:52.102Z,36
2022-08-27T04:22:52.087Z,32
2022-08-27T04:23:59.675Z,36
2022-08-27T04:24:59.677Z,24
2022-08-27T04:25:52.055Z,28
2022-08-27T04:26:52.057Z,32
2022-08-27T04:27:52.045Z,32
2022-08-27T04:28:52.023Z,28
2022-08-27T04:29:52.050Z,32
2022-08-27T04:30:52.006Z,36
2022-08-27T04:31:52.040Z,24
2022-08-27T04:32:51.980Z,28
2022-08-27T04:33:51.969Z,32
2022-08-27T04:34:51.962Z,36
2022-08-27T04:35:51.971Z,44
2022-08-27T04:36:51.948Z,48
2022-08-27T04:37:51.924Z,56
2022-08-27T04:38:51.912Z,60
2022-08-27T04:39:59.483Z,68
2022-08-27T04:40:51.895Z,72
2022-08-27T04:41:51.889Z,76
2022-08-27T04:42:51.874Z,80
2022-08-27T04:43:51.862Z,84
2022-08-27T04:44:51.863Z,92
2022-08-27T04:45:51.852Z,96
2022-08-27T04:46:51.834Z,100
2022-08-27T04:47:51.847Z,104
2022-08-27T04:48:51.815Z,108
2022-08-27T04:49:51.809Z,116
2022-08-27T04:50:51.790Z,124
2022-08-27T04:51:51.771Z,132
2022-08-27T04:52:51.764Z,144
2022-08-27T04:53:51.775Z,152
2022-08-27T04:54:51.742Z,160
2022-08-27T04:55:51.741Z,168
2022-08-27T04:56:51.734Z,172
2022-08-27T04:57:51.716Z,164
2022-08-27T04:58:51.713Z,164
2022-08-27T04:59:51.688Z,160
2022-08-27T05:00:51.683Z,160
2022-08-27T05:01:51.672Z,164
2022-08-27T05:02:51.654Z,168
2022-08-27T05:03:51.649Z,176
2022-08-27T05:04:51.647Z,180
2022-08-27T05:05:51.628Z,184
2022-08-27T05:06:51.612Z,188
2022-08-27T05:07:51.652Z,196
2022-08-27T05:08:51.597Z,196
2022-08-27T05:09:51.594Z,200
2022-08-27T05:10:51.593Z,208
2022-08-27T05:11:51.564Z,208
2022-08-27T05:12:51.555Z,204
2022-08-27T05:13:51.537Z,208
2022-08-27T05:14:51.537Z,208
2022-08-27T05:15:51.532Z,220
2022-08-27T05:16:51.510Z,228
2022-08-27T05:17:51.495Z,236
2022-08-27T05:18:51.491Z,244
2022-08-27T05:19:51.491Z,252
2022-08-27T05:20:51.473Z,260
2022-08-27T05:21:51.468Z,268
2022-08-27T05:22:51.445Z,272
2022-08-27T05:23:51.431Z,272
2022-08-27T05:24:51.422Z,276
2022-08-27T05:25:51.417Z,276
2022-08-27T05:26:51.411Z,284
2022-08-27T05:27:51.387Z,296
2022-08-27T05:28:51.377Z,308
2022-08-27T05:29:51.372Z,316
2022-08-27T05:30:51.353Z,324
2022-08-27T05:31:51.341Z,336
2022-08-27T05:32:51.348Z,352
2022-08-27T05:33:51.320Z,372
2022-08-27T05:34:51.319Z,392
2022-08-27T05:35:51.318Z,412
2022-08-27T05:36:51.289Z,436
2022-08-27T05:37:51.276Z,468
2022-08-27T05:38:51.277Z,496
2022-08-27T05:39:51.261Z,508
2022-08-27T05:40:51.259Z,520
2022-08-27T05:41:51.240Z,528
2022-08-27T05:42:51.228Z,544
2022-08-27T05:43:51.226Z,556
2022-08-27T05:44:51.216Z,556
2022-08-27T05:45:51.200Z,556
2022-08-27T05:46:51.195Z,544
2022-08-27T05:47:51.179Z,532
2022-08-27T05:48:51.165Z,508
2022-08-27T05:49:51.164Z,488
2022-08-27T05:50:51.159Z,484
2022-08-27T05:51:51.132Z,484
2022-08-27T05:52:51.147Z,492
2022-08-27T05:53:51.108Z,488
2022-08-27T05:54:51.099Z,488
2022-08-27T05:55:51.103Z,484
2022-08-27T05:56:51.079Z,488
2022-08-27T05:57:51.084Z,484
2022-08-27T05:58:51.074Z,476
2022-08-27T05:59:51.063Z,476
2022-08-27T06:00:51.046Z,472
2022-08-27T06:01:51.032Z,472
2022-08-27T06:02:51.015Z,484
2022-08-27T06:03:51.003Z,500
2022-08-27T06:04:50.997Z,520
2022-08-27T06:05:50.981Z,516
2022-08-27T06:06:50.977Z,516
2022-08-27T06:07:50.958Z,520
2022-08-27T06:08:50.948Z,520
2022-08-27T06:09:50.956Z,508
2022-08-27T06:10:50.922Z,512
2022-08-27T06:11:50.915Z,528
2022-08-27T06:12:50.910Z,540
2022-08-27T06:13:50.911Z,556
2022-08-27T06:14:50.885Z,572
2022-08-27T06:15:50.871Z,592
2022-08-27T06:16:50.870Z,616
2022-08-27T06:17:50.862Z,628
2022-08-27T06:18:50.846Z,628
2022-08-27T06:19:50.828Z,628
2022-08-27T06:20:50.821Z,632
2022-08-27T06:21:50.817Z,640
2022-08-27T06:22:50.796Z,656
2022-08-27T06:23:50.789Z,672
2022-08-27T06:24:50.774Z,688
2022-08-27T06:25:50.766Z,704
2022-08-27T06:26:50.757Z,708
2022-08-27T06:27:50.744Z,704
2022-08-27T06:28:50.733Z,688
2022-08-27T06:29:50.762Z,660
2022-08-27T06:30:50.714Z,652
2022-08-27T06:31:50.701Z,640
2022-08-27T06:32:50.712Z,636
2022-08-27T06:33:50.675Z,644
2022-08-27T06:34:50.667Z,660
2022-08-27T06:35:50.662Z,668
2022-08-27T06:36:50.649Z,660
2022-08-27T06:37:50.638Z,648
2022-08-27T06:38:50.629Z,632
2022-08-27T06:39:50.634Z,628
2022-08-27T06:40:50.604Z,644
2022-08-27T06:41:50.599Z,664
2022-08-27T06:42:50.579Z,680
2022-08-27T06:43:50.577Z,676
2022-08-27T06:44:50.573Z,684
2022-08-27T06:45:50.557Z,672
2022-08-27T06:46:50.551Z,652
2022-08-27T06:47:50.545Z,636
2022-08-27T06:48:50.526Z,640
2022-08-27T06:49:50.509Z,636
2022-08-27T06:50:50.510Z,652
2022-08-27T06:51:50.490Z,696
2022-08-27T06:52:50.482Z,776
2022-08-27T06:53:50.459Z,884
2022-08-27T06:54:50.472Z,996
2022-08-27T06:55:50.442Z,1120
2022-08-27T06:56:50.484Z,1228
2022-08-27T06:57:50.423Z,1252
2022-08-27T06:58:50.420Z,1268
2022-08-27T06:59:50.397Z,1252
2022-08-27T07:00:50.385Z,1264
2022-08-27T07:01:50.396Z,1256
2022-08-27T07:02:50.367Z,1284
2022-08-27T07:03:50.353Z,1284
2022-08-27T07:04:50.352Z,1292
2022-08-27T07:05:50.343Z,1260
2022-08-27T07:06:50.322Z,1228
2022-08-27T07:07:50.321Z,1204
2022-08-27T07:08:50.301Z,1200
2022-08-27T07:09:50.301Z,1192
2022-08-27T07:10:50.280Z,1152
2022-08-27T07:11:50.269Z,1084
2022-08-27T07:12:50.270Z,1052
2022-08-27T07:13:50.254Z,1056
2022-08-27T07:14:50.245Z,1088
2022-08-27T07:15:50.248Z,1128
2022-08-27T07:16:50.208Z,1180
2022-08-27T07:17:50.202Z,1240
2022-08-27T07:18:50.191Z,1272
2022-08-27T07:19:50.226Z,1264
2022-08-27T07:20:50.172Z,1232
2022-08-27T07:21:50.155Z,1272
2022-08-27T07:22:50.156Z,1312
2022-08-27T07:23:50.141Z,1324
2022-08-27T07:24:50.127Z,1332
2022-08-27T07:25:50.113Z,1356
2022-08-27T07:26:50.136Z,1360
2022-08-27T07:27:50.100Z,1372
2022-08-27T07:28:50.084Z,1432
2022-08-27T07:29:50.077Z,1532
2022-08-27T07:30:50.066Z,1656
2022-08-27T07:31:50.053Z,1732
2022-08-27T07:32:50.057Z,1784
2022-08-27T07:33:50.039Z,1788
2022-08-27T07:34:50.020Z,1792
2022-08-27T07:35:50.010Z,1804
2022-08-27T07:36:50.002Z,1828
2022-08-27T07:37:49.992Z,1852
2022-08-27T07:38:49.993Z,1884
2022-08-27T07:39:49.972Z,1940
2022-08-27T07:40:49.957Z,1992
2022-08-27T07:41:49.961Z,2148
2022-08-27T07:42:49.938Z,2396
2022-08-27T07:43:49.924Z,2704
2022-08-27T07:44:49.928Z,3136
2022-08-27T07:45:49.903Z,3468
2022-08-27T07:46:49.898Z,3548
2022-08-27T07:47:49.890Z,3392
2022-08-27T07:48:49.881Z,3096
2022-08-27T07:49:49.859Z,2800
2022-08-27T07:50:49.855Z,2620
2022-08-27T07:51:49.835Z,2552
2022-08-27T07:52:49.835Z,2588
2022-08-27T07:53:49.821Z,2608
2022-08-27T07:54:49.805Z,2568
2022-08-27T07:55:49.825Z,2572
2022-08-27T07:56:49.790Z,2648
2022-08-27T07:57:49.866Z,2732
2022-08-27T07:58:49.764Z,2844
2022-08-27T07:59:49.763Z,2996
2022-08-27T08:00:49.742Z,3168
2022-08-27T08:01:49.740Z,3416
2022-08-27T08:02:49.869Z,3876
2022-08-27T08:08:03.424Z,4500
2022-08-27T08:09:03.430Z,4492
2022-08-27T08:10:03.401Z,4560
2022-08-27T08:11:03.388Z,4628
2022-08-27T08:12:03.393Z,4812
2022-08-27T08:13:03.374Z,5176
2022-08-27T08:14:03.375Z,5628
2022-08-27T08:15:03.578Z,6172
2022-08-27T08:16:03.368Z,6596
2022-08-27T08:17:03.333Z,7004
2022-08-27T08:18:03.319Z,7028
2022-08-27T08:19:03.309Z,6952
2022-08-27T08:20:03.293Z,6952
2022-08-27T08:21:03.437Z,7060
2022-08-27T08:22:03.283Z,7196
2022-08-27T08:23:03.273Z,7160
2022-08-27T08:24:03.253Z,7104
2022-08-27T08:25:03.255Z,7172
2022-08-27T08:26:03.252Z,7140
2022-08-27T08:27:03.247Z,7040
2022-08-27T08:28:03.207Z,7048
2022-08-27T08:29:03.245Z,6948
2022-08-27T08:30:04.109Z,7060
2022-08-27T08:31:03.191Z,7148
2022-08-27T08:32:03.185Z,7100
2022-08-27T08:33:03.170Z,6964
2022-08-27T08:34:03.157Z,6548
2022-08-27T08:35:03.154Z,6016
2022-08-27T08:36:03.143Z,5832
2022-08-27T08:37:03.120Z,5704
2022-08-27T08:38:03.118Z,5196
2022-08-27T08:39:03.115Z,4804
2022-08-27T08:40:03.093Z,4632
2022-08-27T08:41:03.085Z,4496
2022-08-27T08:42:03.063Z,4340
2022-08-27T08:43:03.071Z,4196
2022-08-27T08:44:03.048Z,4092
2022-08-27T08:45:03.067Z,4036
2022-08-27T08:46:03.074Z,4068
2022-08-27T08:47:03.027Z,4148
2022-08-27T08:48:03.006Z,4372
2022-08-27T08:49:02.994Z,4604
2022-08-27T08:50:03.006Z,4784
2022-08-27T08:51:02.995Z,5016
2022-08-27T08:52:02.975Z,5512
2022-08-27T08:53:02.960Z,5856
2022-08-27T08:54:02.949Z,6136
2022-08-27T08:55:02.940Z,6436
2022-08-27T08:56:02.955Z,6496
2022-08-27T08:57:02.914Z,6300
2022-08-27T08:58:02.903Z,6184
2022-08-27T08:59:02.906Z,6500
2022-08-27T09:00:02.882Z,6256
2022-08-27T09:01:02.892Z,5984
2022-08-27T09:02:02.884Z,6428
2022-08-27T09:03:02.854Z,7536
2022-08-27T09:04:02.848Z,8020
2022-08-27T09:05:02.832Z,7464
2022-08-27T09:06:02.829Z,7288
2022-08-27T09:07:02.827Z,7216
2022-08-27T09:08:02.859Z,6824
2022-08-27T09:09:02.788Z,6552
2022-08-27T09:10:02.804Z,6300
2022-08-27T09:11:02.779Z,5576
2022-08-27T09:12:02.759Z,5456
2022-08-27T09:13:02.805Z,5988
2022-08-27T09:14:02.735Z,6488
2022-08-27T09:15:02.769Z,6432
2022-08-27T09:16:02.738Z,5984
2022-08-27T09:17:02.708Z,5812
2022-08-27T09:18:02.705Z,6012
2022-08-27T09:19:02.703Z,6132
2022-08-27T09:20:02.699Z,6308
2022-08-27T09:21:02.667Z,6584
2022-08-27T09:22:02.669Z,7000
2022-08-27T09:23:02.680Z,7240
2022-08-27T09:24:02.640Z,6960
2022-08-27T09:25:02.637Z,6784
2022-08-27T09:26:02.632Z,6960
2022-08-27T09:27:02.609Z,7260
2022-08-27T09:28:02.594Z,7596
2022-08-27T09:29:02.595Z,7760
2022-08-27T09:30:02.581Z,7876
2022-08-27T09:31:02.577Z,8148
2022-08-27T09:32:02.550Z,8340
2022-08-27T09:33:02.544Z,8444
2022-08-27T09:34:02.536Z,8748
2022-08-27T09:35:02.521Z,9104
2022-08-27T09:36:02.520Z,9188
2022-08-27T09:37:02.547Z,8568
2022-08-27T09:38:02.491Z,8328
2022-08-27T09:39:02.475Z,8912
2022-08-27T09:40:02.480Z,10080
2022-08-27T09:41:02.462Z,10116
2022-08-27T09:42:02.447Z,9772
2022-08-27T09:43:02.449Z,9448
2022-08-27T09:44:02.426Z,9172
2022-08-27T09:45:02.418Z,8216
2022-08-27T09:46:02.397Z,6956
2022-08-27T09:47:02.409Z,6292
2022-08-27T09:48:02.386Z,5988
2022-08-27T09:49:02.369Z,5812
2022-08-27T09:50:02.390Z,5640
2022-08-27T09:51:02.356Z,5812
2022-08-27T09:52:02.334Z,5940
2022-08-27T09:53:02.325Z,6232
2022-08-27T09:54:02.315Z,6212
2022-08-27T09:55:02.303Z,5984
2022-08-27T09:56:02.292Z,5972
2022-08-27T09:57:02.281Z,6008
2022-08-27T09:58:02.277Z,6208
2022-08-27T09:59:02.271Z,6388
2022-08-27T10:00:02.271Z,7088
2022-08-27T10:01:02.241Z,7852
2022-08-27T10:02:02.244Z,8404
2022-08-27T10:03:02.240Z,8596
2022-08-27T10:04:02.206Z,8444
2022-08-27T10:05:02.219Z,8376
2022-08-27T10:06:02.208Z,8276
2022-08-27T10:07:02.186Z,7936
2022-08-27T10:08:02.163Z,7544
2022-08-27T10:09:02.156Z,7028
2022-08-27T10:10:02.165Z,6604
2022-08-27T10:11:02.161Z,6292
2022-08-27T10:12:02.117Z,6036
2022-08-27T10:13:02.107Z,5672
2022-08-27T10:14:02.106Z,5344
2022-08-27T10:15:02.111Z,5000
2022-08-27T10:16:02.091Z,4728
2022-08-27T10:17:02.075Z,4500
2022-08-27T10:18:02.140Z,4204
2022-08-27T10:19:02.044Z,4076
2022-08-27T10:20:02.036Z,4096
2022-08-27T10:21:02.023Z,4156
2022-08-27T10:22:02.074Z,4200
2022-08-27T10:23:02.016Z,3956
2022-08-27T10:24:01.993Z,3756
2022-08-27T10:25:02.032Z,3468
2022-08-27T10:26:01.985Z,3220
2022-08-27T10:27:01.961Z,3036
2022-08-27T10:28:01.958Z,2996
2022-08-27T10:29:01.961Z,2984
2022-08-27T10:30:01.961Z,2952
2022-08-27T10:31:01.926Z,3036
2022-08-27T10:32:01.931Z,3344
2022-08-27T10:33:01.916Z,3740
2022-08-27T10:34:01.900Z,3776
2022-08-27T10:35:01.883Z,3864
2022-08-27T10:36:01.868Z,3976
2022-08-27T10:37:01.862Z,3912
2022-08-27T10:38:01.955Z,3912
2022-08-27T10:39:01.933Z,3812
2022-08-27T10:40:53.754Z,3660
2022-08-27T10:41:53.755Z,3636
2022-08-27T10:42:53.719Z,3608
2022-08-27T10:43:53.745Z,3468
2022-08-27T10:44:53.694Z,3348
2022-08-27T10:45:53.681Z,3352
2022-08-27T10:46:53.684Z,3412
2022-08-27T10:47:53.808Z,3368
2022-08-27T10:48:54.643Z,3392
2022-08-27T10:49:53.683Z,3360
2022-08-27T10:50:53.626Z,3252
2022-08-27T10:51:53.623Z,3280
2022-08-27T10:52:53.640Z,3212
2022-08-27T10:53:53.606Z,3184
2022-08-27T10:54:53.582Z,3076
2022-08-27T10:55:53.589Z,3144
2022-08-27T10:56:53.612Z,3148
2022-08-27T10:57:53.561Z,3264
2022-08-27T10:58:53.570Z,3420
2022-08-27T10:59:53.539Z,3408
2022-08-27T11:00:53.544Z,3520
2022-08-27T11:01:53.515Z,3512
2022-08-27T11:02:53.508Z,3680
2022-08-27T11:03:53.527Z,3828
2022-08-27T11:04:53.485Z,3988
2022-08-27T11:05:53.492Z,4124
2022-08-27T11:06:53.459Z,4464
2022-08-27T11:07:53.451Z,4408
2022-08-27T11:08:53.436Z,4564
2022-08-27T11:09:53.436Z,4576
2022-08-27T11:10:53.422Z,4748
2022-08-27T11:11:53.433Z,4872
2022-08-27T11:12:53.399Z,5092
2022-08-27T11:13:53.402Z,5004
2022-08-27T11:14:53.408Z,4816
2022-08-27T11:15:53.416Z,5116
2022-08-27T11:16:53.388Z,5064
2022-08-27T11:17:53.368Z,5104
2022-08-27T11:18:53.365Z,5156
2022-08-27T11:19:53.336Z,5144
2022-08-27T11:20:53.369Z,5096
2022-08-27T11:21:53.327Z,5112
2022-08-27T11:22:53.293Z,5104
2022-08-27T11:23:53.441Z,5120
2022-08-27T11:24:53.276Z,4944
2022-08-27T11:25:53.257Z,4888
2022-08-27T11:26:53.286Z,4920
2022-08-27T11:27:53.284Z,4900
2022-08-27T11:28:53.243Z,4904
2022-08-27T11:29:53.230Z,4792
2022-08-27T11:30:53.230Z,4728
2022-08-27T11:31:53.226Z,4616
2022-08-27T11:32:53.199Z,4492
2022-08-27T11:33:53.187Z,4348
2022-08-27T11:34:53.184Z,4456
2022-08-27T11:35:53.155Z,4288
2022-08-27T11:36:53.156Z,4212
2022-08-27T11:37:53.166Z,4276
2022-08-27T11:38:53.138Z,4080
2022-08-27T11:39:53.121Z,3896
2022-08-27T11:40:53.154Z,3964
2022-08-27T11:42:06.057Z,4088
2022-08-27T11:42:53.099Z,4280
2022-08-27T11:43:53.080Z,4492
2022-08-27T11:44:53.062Z,4580
2022-08-27T11:45:53.064Z,4460
2022-08-27T11:46:53.052Z,4640
2022-08-27T11:47:53.071Z,4672
2022-08-27T11:48:53.020Z,4976
2022-08-27T11:49:53.029Z,5000
2022-08-27T11:50:53.020Z,5036
2022-08-27T11:51:53.000Z,5620
2022-08-27T11:52:52.999Z,6048
2022-08-27T11:53:52.978Z,6308
2022-08-27T11:55:48.107Z,7048
2022-08-27T11:56:48.057Z,7236
2022-08-27T11:57:48.055Z,7512
2022-08-27T11:58:48.017Z,7624
2022-08-27T11:59:49.014Z,7624
2022-08-27T12:00:48.011Z,7860
2022-08-27T12:01:48.043Z,7896
2022-08-27T12:02:47.982Z,7688
2022-08-27T12:03:48.141Z,7548
2022-08-27T12:04:47.957Z,7420
2022-08-27T12:05:47.944Z,7356
2022-08-27T12:06:47.934Z,7788
2022-08-27T12:07:47.960Z,8168
2022-08-27T12:08:47.938Z,8380
2022-08-27T12:09:47.933Z,8328
2022-08-27T12:10:47.971Z,8228
2022-08-27T12:11:48.920Z,8100
2022-08-27T12:12:47.875Z,8084
2022-08-27T12:13:47.877Z,7988
2022-08-27T12:14:47.855Z,7620
2022-08-27T12:15:47.844Z,7240
2022-08-27T12:16:47.856Z,6700
2022-08-27T12:17:47.836Z,6740
2022-08-27T12:18:47.899Z,6636
2022-08-27T12:19:47.805Z,6276
2022-08-27T12:20:47.824Z,6276
2022-08-27T12:21:47.787Z,6244
2022-08-27T12:22:47.779Z,6008
2022-08-27T12:23:47.769Z,5856
2022-08-27T12:24:47.756Z,5796
2022-08-27T12:25:47.755Z,5660
2022-08-27T12:26:47.730Z,5592
2022-08-27T12:27:47.721Z,5568
2022-08-27T12:28:47.727Z,5632
2022-08-27T12:29:47.728Z,5660
2022-08-27T12:30:47.698Z,5768
2022-08-27T12:31:47.683Z,5856
2022-08-27T12:32:47.669Z,5956
2022-08-27T12:33:47.658Z,6196
2022-08-27T12:34:47.649Z,6144
2022-08-27T12:35:47.642Z,6024
2022-08-27T12:36:47.633Z,6016
2022-08-27T12:37:47.644Z,6056
2022-08-27T12:38:47.599Z,6008
2022-08-27T12:39:47.601Z,6016
2022-08-27T12:40:47.585Z,5916
2022-08-27T12:41:47.572Z,5788
2022-08-27T12:42:47.566Z,5652
2022-08-27T12:43:47.548Z,5584
2022-08-27T12:44:47.541Z,5640
2022-08-27T12:45:47.540Z,5996
2022-08-27T12:46:47.538Z,6092
2022-08-27T12:47:47.512Z,6228
2022-08-27T12:48:47.500Z,6188
2022-08-27T12:49:47.483Z,6136
2022-08-27T12:50:47.472Z,5960
2022-08-27T12:51:47.473Z,5868
2022-08-27T12:52:47.477Z,5772
2022-08-27T12:53:47.443Z,5856
2022-08-27T12:54:47.437Z,6192
2022-08-27T12:55:47.442Z,6364
2022-08-27T12:56:47.423Z,6472
2022-08-27T12:57:47.416Z,6620
2022-08-27T12:58:47.413Z,6504
2022-08-27T12:59:47.383Z,6304
2022-08-27T13:00:47.386Z,6172
2022-08-27T13:01:47.367Z,6100
2022-08-27T13:02:47.351Z,6024
2022-08-27T13:03:47.343Z,5992
2022-08-27T13:04:47.347Z,5872
2022-08-27T13:05:47.319Z,5920
2022-08-27T13:06:47.385Z,6024
2022-08-27T13:07:47.294Z,6148
2022-08-27T13:08:47.286Z,6248
2022-08-27T13:09:47.277Z,6412
2022-08-27T13:10:47.282Z,6576
2022-08-27T13:11:47.260Z,6684
2022-08-27T13:12:47.239Z,6760
2022-08-27T13:13:47.228Z,7072
2022-08-27T13:14:47.241Z,7836
2022-08-27T13:15:47.205Z,8308
2022-08-27T13:16:47.251Z,8644
2022-08-27T13:17:47.199Z,9620
2022-08-27T13:18:47.212Z,11324
2022-08-27T13:19:47.180Z,12224
2022-08-27T13:20:47.156Z,12064
2022-08-27T13:21:47.152Z,11728
2022-08-27T13:22:47.175Z,11028
2022-08-27T13:23:47.140Z,10352
2022-08-27T13:24:47.120Z,9752
2022-08-27T13:25:47.101Z,9160
2022-08-27T13:26:47.102Z,9176
2022-08-27T13:27:47.079Z,8920
2022-08-27T13:28:47.078Z,8300
2022-08-27T13:29:47.071Z,7648
2022-08-27T13:30:47.048Z,7144
2022-08-27T13:31:47.044Z,6972
2022-08-27T13:32:47.031Z,6732
2022-08-27T13:33:47.015Z,6776
2022-08-27T13:34:47.012Z,7028
2022-08-27T13:35:47.026Z,7388
2022-08-27T13:36:46.985Z,7668
2022-08-27T13:37:46.976Z,7880
2022-08-27T13:38:46.976Z,7996
2022-08-27T13:39:46.953Z,8048
2022-08-27T13:40:46.967Z,7836
2022-08-27T13:41:46.954Z,7216
2022-08-27T13:42:46.935Z,6304
2022-08-27T13:43:46.909Z,5592
2022-08-27T13:44:46.925Z,5332
2022-08-27T13:45:46.894Z,5296
2022-08-27T13:46:46.887Z,5244
2022-08-27T13:47:46.876Z,5176